首页
METAR-TAF:

METAR-TAF

机场 :

托皮卡, 堪薩斯州, 美国

纬度: 38-56-29N, 经度: 095-39-02W, 海拔: 329米

当前天气观测

该预报发布于8分钟前的01:53 UTC
静风
温度 3°C
湿度 70%
气压 1015 hPa
能見度: 16.1公里
天空无云

METAR: KFOE 180153Z 00000KT 10SM CLR 03/M02 A2996 RMK AO2 SLP149 T00281022

时间: 20:01 (02:01 UTC)

预报

该预报发布于2小时和34分钟前的23:27 UTC
预报有效从18日的 00点(UTC)到 18日的 24点(UTC)
风速4节,风向多变
能見度: 10公里
天空无云
从 18日的 0900点(UTC)
风速6节,风向南转西南
能見度: 10公里
多云层高于10000英尺
从 18日的 1900点(UTC)
风速11节,风向西转西北
能見度: 10公里
散云层高于9000英尺

TAF: KFOE 172327Z 1800/1824 VRB04KT P6SM SKC FM180900 21006KT P6SM BKN100 FM181900 29011KT P6SM SCT090

超过4000个机场的气象观测和天气预报(METAR&TAF报告)。

可查询的气象台以黄色和红色小点在地图上表示。

将鼠标移到小点上方,可查看气象台名称。

然后点击查看天气观测和预报。

如需切换地图:点击带黑十字的绿色按钮放大地图;点击带横线的绿色按钮缩小地图;或者点击绿色箭头查看邻近地区的地图。


METAR-TAF: